Time;durP1;ratioP1;P1;durP2;ratioP2;P2;SDS_P1;SDS_P2;PMS_P1;PMS_P2;Temp;Humidity;BMP_temperature;BMP_pressure;BME280_temperature;BME280_humidity;BME280_pressure;Samples;Min_cycle;Max_cycle;Signal;HPM_P1;HPM_P2
2023/04/16 00:01:19;;;;;;;2.10;1.10;;;10.40;99.90;;;;;;5003740;28;20241;-90
2023/04/16 00:03:50;;;;;;;2.97;1.50;;;10.40;99.90;;;;;;4994473;28;20221;-90
2023/04/16 00:06:26;;;;;;;2.33;1.20;;;10.30;99.90;;;;;;4986803;28;20214;-91
2023/04/16 00:08:58;;;;;;;2.83;1.37;;;10.20;99.90;;;;;;4990024;28;20207;-90
2023/04/16 00:11:29;;;;;;;1.30;1.20;;;10.10;99.90;;;;;;4973783;28;20272;-91
2023/04/16 00:14:01;;;;;;;2.27;1.90;;;10.10;99.90;;;;;;4995453;28;20261;-87
2023/04/16 00:16:33;;;;;;;3.70;1.37;;;10.20;99.90;;;;;;4989616;28;20286;-90
2023/04/16 00:19:04;;;;;;;2.67;1.90;;;10.20;99.90;;;;;;4974955;28;20770;-88
2023/04/16 00:21:39;;;;;;;2.13;1.53;;;10.30;99.90;;;;;;4980192;28;20292;-88
2023/04/16 00:24:11;;;;;;;3.90;1.53;;;10.50;99.90;;;;;;4991135;28;20203;-89
2023/04/16 00:26:43;;;;;;;3.33;1.83;;;10.50;99.90;;;;;;5007252;28;20372;-88
2023/04/16 00:29:15;;;;;;;2.60;1.70;;;10.50;99.90;;;;;;5014052;28;20205;-87
2023/04/16 00:31:46;;;;;;;3.30;1.60;;;10.50;99.90;;;;;;5011111;28;20724;-88
2023/04/16 00:34:18;;;;;;;3.27;1.90;;;10.50;99.90;;;;;;4995585;28;20572;-87
2023/04/16 00:36:52;;;;;;;2.40;1.80;;;10.50;99.90;;;;;;4996333;28;20221;-87
2023/04/16 00:39:22;;;;;;;2.47;1.57;;;10.60;99.90;;;;;;4995368;28;20273;-87
2023/04/16 00:41:54;;;;;;;2.03;1.40;;;10.70;99.90;;;;;;5013874;28;20253;-88
2023/04/16 00:44:25;;;;;;;2.30;1.70;;;10.80;99.90;;;;;;4663081;28;10000973;-87
2023/04/16 00:46:57;;;;;;;2.30;1.70;;;10.80;99.90;;;;;;4986622;28;20237;-85
2023/04/16 00:49:29;;;;;;;3.73;1.87;;;10.80;99.90;;;;;;4994565;28;20205;-85
2023/04/16 00:52:03;;;;;;;2.30;1.77;;;10.90;99.90;;;;;;4998630;28;20733;-85
2023/04/16 00:54:35;;;;;;;2.73;1.73;;;10.80;99.90;;;;;;4983053;28;20218;-84
2023/04/16 00:57:06;;;;;;;1.80;1.70;;;10.70;99.90;;;;;;4991021;28;20260;-85
2023/04/16 00:59:38;;;;;;;3.13;1.53;;;10.70;99.90;;;;;;4992039;28;20206;-84
2023/04/16 01:02:09;;;;;;;2.97;1.70;;;10.70;99.90;;;;;;5004041;28;20213;-83
2023/04/16 01:04:40;;;;;;;4.13;2.30;;;10.60;99.90;;;;;;4978910;28;20667;-84
2023/04/16 01:07:13;;;;;;;4.07;1.80;;;10.50;99.90;;;;;;4994001;28;20202;-87
2023/04/16 01:09:44;;;;;;;2.30;2.00;;;10.60;99.90;;;;;;5008516;28;20591;-87
2023/04/16 01:12:16;;;;;;;5.00;1.93;;;10.60;99.90;;;;;;4997553;28;20207;-87
2023/04/16 01:14:48;;;;;;;2.37;1.70;;;10.50;99.90;;;;;;4996010;28;20260;-87
2023/04/16 01:17:22;;;;;;;1.97;1.70;;;10.60;99.90;;;;;;4997981;28;20576;-87
2023/04/16 01:19:53;;;;;;;1.90;1.70;;;10.50;99.90;;;;;;5008683;28;20218;-86
2023/04/16 01:22:28;;;;;;;2.77;1.90;;;10.40;99.90;;;;;;4997847;28;20678;-88
2023/04/16 01:25:00;;;;;;;3.00;1.87;;;10.30;99.90;;;;;;4984697;28;20206;-89
2023/04/16 01:27:32;;;;;;;2.37;1.70;;;10.20;99.90;;;;;;4996948;28;20210;-89
2023/04/16 01:30:05;;;;;;;1.60;1.50;;;10.20;99.90;;;;;;5006579;28;20655;-89
2023/04/16 01:32:37;;;;;;;3.13;2.10;;;10.20;99.90;;;;;;4998574;28;20212;-88
2023/04/16 01:35:09;;;;;;;1.77;1.60;;;10.20;99.90;;;;;;4987483;28;20218;-86
2023/04/16 01:37:42;;;;;;;4.10;1.70;;;10.10;99.90;;;;;;4996988;28;20249;-86
2023/04/16 01:40:13;;;;;;;2.40;1.70;;;10.20;99.90;;;;;;5007922;28;20221;-85
2023/04/16 01:42:44;;;;;;;4.10;2.07;;;10.10;99.90;;;;;;4984388;28;20202;-86
2023/04/16 01:45:15;;;;;;;2.40;1.70;;;10.00;99.90;;;;;;4997887;28;20218;-88
2023/04/16 01:47:46;;;;;;;2.47;2.07;;;10.00;99.90;;;;;;4984291;28;20966;-88
2023/04/16 01:50:21;;;;;;;2.40;1.70;;;9.90;99.90;;;;;;4991588;28;20284;-89
2023/04/16 01:52:55;;;;;;;3.13;2.00;;;9.80;99.90;;;;;;4984955;28;20247;-86
2023/04/16 01:55:27;;;;;;;2.77;1.80;;;9.90;99.90;;;;;;4996456;28;20241;-87
2023/04/16 01:57:59;;;;;;;2.33;2.07;;;9.90;99.90;;;;;;4996087;28;20214;-86
2023/04/16 02:00:30;;;;;;;3.30;2.10;;;10.00;99.90;;;;;;5004060;28;20293;-86
2023/04/16 02:03:02;;;;;;;3.30;2.20;;;10.10;99.90;;;;;;4996206;28;20686;-87
2023/04/16 02:05:33;;;;;;;2.87;1.90;;;10.10;99.90;;;;;;4994755;28;20209;-87
2023/04/16 02:08:07;;;;;;;3.67;1.93;;;10.20;99.90;;;;;;4999594;28;20214;-88
2023/04/16 02:10:39;;;;;;;3.73;1.83;;;10.20;99.90;;;;;;4996855;28;20210;-87
2023/04/16 02:13:11;;;;;;;2.43;1.83;;;10.20;99.90;;;;;;4982328;28;20227;-89
2023/04/16 02:15:45;;;;;;;2.70;2.00;;;10.20;99.90;;;;;;5008309;28;20213;-89
2023/04/16 02:18:17;;;;;;;2.77;2.20;;;10.10;99.90;;;;;;4996034;28;20209;-93
2023/04/16 02:20:50;;;;;;;2.47;1.87;;;10.10;99.90;;;;;;4989210;28;20237;-95
2023/04/16 02:23:24;;;;;;;2.47;1.93;;;10.00;99.90;;;;;;4985476;28;20552;-92
2023/04/16 02:25:56;;;;;;;3.00;2.00;;;10.10;99.90;;;;;;4995398;28;20210;-91
2023/04/16 02:28:28;;;;;;;3.20;2.13;;;10.00;99.90;;;;;;4998839;28;20277;-90
2023/04/16 02:31:00;;;;;;;3.60;2.03;;;10.00;99.90;;;;;;5006949;28;20206;-89
2023/04/16 02:33:32;;;;;;;1.90;1.80;;;9.90;99.90;;;;;;5029768;28;20198;-88
2023/04/16 02:36:03;;;;;;;1.87;1.57;;;9.90;99.90;;;;;;5023799;28;20203;-88
2023/04/16 02:38:37;;;;;;;2.77;1.80;;;9.80;99.90;;;;;;5010213;28;20973;-88
2023/04/16 02:41:10;;;;;;;2.80;1.77;;;9.70;99.90;;;;;;5008582;28;20245;-88
2023/04/16 02:43:41;;;;;;;1.77;1.67;;;9.60;99.90;;;;;;4999351;28;20265;-88
2023/04/16 02:46:12;;;;;;;3.13;1.90;;;9.60;99.90;;;;;;4995516;28;20223;-89
2023/04/16 02:48:44;;;;;;;2.53;1.90;;;9.60;99.90;;;;;;4998866;28;20325;-88
2023/04/16 02:51:15;;;;;;;2.43;1.70;;;9.60;99.90;;;;;;5007135;28;20203;-88
2023/04/16 02:53:49;;;;;;;2.00;1.90;;;9.60;99.90;;;;;;5000035;28;20301;-87
2023/04/16 02:56:21;;;;;;;3.10;2.00;;;9.60;99.90;;;;;;4997022;28;20226;-89
2023/04/16 02:58:52;;;;;;;2.47;1.90;;;9.60;99.90;;;;;;4982274;28;20261;-89
2023/04/16 03:01:24;;;;;;;4.40;2.10;;;9.50;99.90;;;;;;4995827;28;20292;-88
2023/04/16 03:03:58;;;;;;;2.40;1.97;;;9.60;99.90;;;;;;4995007;28;20214;-89
2023/04/16 03:06:30;;;;;;;3.77;2.27;;;9.60;99.90;;;;;;4991169;28;20246;-86
2023/04/16 03:09:03;;;;;;;2.90;2.20;;;9.50;99.90;;;;;;4986848;28;20303;-89
2023/04/16 03:11:35;;;;;;;2.10;1.83;;;9.50;99.90;;;;;;4980686;28;20219;-92
2023/04/16 03:14:07;;;;;;;3.23;1.97;;;9.50;99.90;;;;;;4986069;28;20209;-93
2023/04/16 03:16:38;;;;;;;3.13;2.23;;;9.40;99.90;;;;;;4994864;28;20222;-89
2023/04/16 03:19:10;;;;;;;3.27;2.30;;;9.40;99.90;;;;;;4995290;28;20214;-89
2023/04/16 03:21:42;;;;;;;5.03;1.87;;;9.50;99.90;;;;;;4990610;28;20234;-89
2023/04/16 03:24:15;;;;;;;1.93;1.80;;;9.40;99.90;;;;;;4991325;28;20210;-91
2023/04/16 03:26:46;;;;;;;2.37;1.87;;;9.50;99.90;;;;;;5008389;28;20244;-92
2023/04/16 03:29:19;;;;;;;2.93;1.83;;;9.50;99.90;;;;;;4994665;28;20218;-89
2023/04/16 03:31:51;;;;;;;4.80;2.00;;;9.40;99.90;;;;;;5000641;28;20206;-89
2023/04/16 03:34:22;;;;;;;3.07;2.20;;;9.40;99.90;;;;;;4978781;28;20213;-89
2023/04/16 03:36:53;;;;;;;4.47;1.93;;;9.40;99.90;;;;;;4977326;28;20715;-88
2023/04/16 03:39:26;;;;;;;2.20;1.80;;;9.40;99.90;;;;;;4992889;28;20261;-88
2023/04/16 03:41:57;;;;;;;3.80;2.33;;;9.30;99.90;;;;;;4992745;28;20230;-88
2023/04/16 03:44:29;;;;;;;3.43;2.00;;;9.30;99.90;;;;;;4993665;28;20217;-89
2023/04/16 03:47:04;;;;;;;5.03;2.90;;;9.30;99.90;;;;;;4999406;28;20206;-88
2023/04/16 03:49:36;;;;;;;3.90;2.20;;;9.40;99.90;;;;;;5004041;28;20655;-88
2023/04/16 03:52:07;;;;;;;5.57;4.50;;;9.30;99.90;;;;;;4995584;28;20202;-87
2023/04/16 03:54:41;;;;;;;7.10;4.63;;;9.20;99.90;;;;;;4995434;28;20622;-86
2023/04/16 03:57:12;;;;;;;6.17;5.07;;;9.20;99.90;;;;;;4995837;28;20269;-87
2023/04/16 03:59:43;;;;;;;4.83;2.90;;;9.20;99.90;;;;;;5005306;28;20223;-87
2023/04/16 04:02:15;;;;;;;3.40;2.80;;;9.10;99.90;;;;;;5014925;28;20235;-87
2023/04/16 04:04:46;;;;;;;5.07;2.90;;;9.20;99.90;;;;;;5014844;28;20244;-86
2023/04/16 04:07:19;;;;;;;3.77;2.50;;;9.20;99.90;;;;;;4998887;28;20214;-89
2023/04/16 04:09:53;;;;;;;3.03;2.30;;;9.20;99.90;;;;;;4997289;28;20634;-89
2023/04/16 04:12:25;;;;;;;2.27;1.90;;;9.20;99.90;;;;;;4997778;28;20648;-91
2023/04/16 04:14:57;;;;;;;3.97;2.37;;;9.20;99.90;;;;;;4999270;28;20261;-91
2023/04/16 04:17:28;;;;;;;2.50;1.80;;;9.10;99.90;;;;;;4997829;28;20261;-94
2023/04/16 04:20:00;;;;;;;4.37;1.90;;;9.10;99.90;;;;;;4988776;28;20294;-91
2023/04/16 04:22:31;;;;;;;3.73;2.73;;;9.20;99.90;;;;;;4990725;28;20223;-90
2023/04/16 04:25:10;;;;;;;3.93;2.60;;;9.20;99.90;;;;;;5016036;28;20206;-91
2023/04/16 04:27:43;;;;;;;2.60;1.93;;;9.20;99.90;;;;;;5012179;28;20607;-92
2023/04/16 04:30:15;;;;;;;3.83;2.40;;;9.10;99.90;;;;;;5015062;28;20190;-92
2023/04/16 04:32:47;;;;;;;3.57;2.00;;;9.20;99.90;;;;;;5006066;28;20363;-91
2023/04/16 04:35:19;;;;;;;3.90;2.00;;;9.20;99.90;;;;;;4989675;28;20206;-91
2023/04/16 04:37:51;;;;;;;6.20;2.23;;;9.10;99.90;;;;;;4984918;28;20262;-91
2023/04/16 04:40:27;;;;;;;3.87;2.20;;;9.20;99.90;;;;;;4990153;28;20207;-92
2023/04/16 04:42:59;;;;;;;3.53;2.30;;;9.20;99.90;;;;;;4997347;28;20233;-92
2023/04/16 04:45:31;;;;;;;3.40;2.17;;;9.00;99.90;;;;;;4996772;28;20202;-91
2023/04/16 04:48:03;;;;;;;2.37;1.80;;;9.00;99.90;;;;;;4994484;28;20221;-89
2023/04/16 04:50:35;;;;;;;3.47;1.80;;;8.90;99.90;;;;;;4991791;28;20209;-91
2023/04/16 04:53:09;;;;;;;3.37;2.10;;;8.90;99.90;;;;;;4976289;28;20218;-90
2023/04/16 04:55:44;;;;;;;3.13;2.13;;;8.90;99.90;;;;;;4976082;28;20215;-90
2023/04/16 04:58:20;;;;;;;3.57;2.20;;;8.90;99.90;;;;;;4973961;28;20219;-91
2023/04/16 05:00:52;;;;;;;4.97;2.33;;;8.90;99.90;;;;;;4989131;28;20214;-90
2023/04/16 05:03:25;;;;;;;3.23;2.00;;;9.00;99.90;;;;;;4993866;28;20264;-92
2023/04/16 05:05:56;;;;;;;3.63;2.00;;;9.00;99.90;;;;;;4994930;28;20252;-88
2023/04/16 05:08:31;;;;;;;2.00;1.80;;;9.00;99.90;;;;;;4998097;28;20202;-92
2023/04/16 05:11:06;;;;;;;3.03;1.83;;;9.00;99.90;;;;;;5014734;28;20588;-91
2023/04/16 05:13:38;;;;;;;2.53;1.80;;;9.00;99.90;;;;;;5014999;28;20665;-92
2023/04/16 05:16:10;;;;;;;4.47;1.77;;;9.00;99.90;;;;;;4999665;28;20288;-92
2023/04/16 05:18:42;;;;;;;5.77;2.20;;;9.00;99.90;;;;;;4979674;28;20245;-92
2023/04/16 05:21:14;;;;;;;3.17;2.00;;;9.00;99.90;;;;;;4988508;28;20218;-91
2023/04/16 05:23:46;;;;;;;2.30;1.67;;;9.00;99.90;;;;;;4995102;28;20237;-90
2023/04/16 05:26:21;;;;;;;3.07;2.10;;;9.20;99.90;;;;;;5001553;28;20287;-92
2023/04/16 05:28:53;;;;;;;4.03;1.90;;;9.10;99.90;;;;;;5013669;28;20267;-92
2023/04/16 05:31:25;;;;;;;1.97;1.77;;;9.10;99.90;;;;;;5011925;28;20209;-92
2023/04/16 05:33:57;;;;;;;3.37;2.07;;;9.00;99.90;;;;;;4994972;28;20202;-92
2023/04/16 05:36:29;;;;;;;2.87;1.73;;;9.00;99.90;;;;;;4979129;28;20210;-93
2023/04/16 05:39:01;;;;;;;2.50;2.10;;;9.00;99.90;;;;;;4974271;28;20214;-93
2023/04/16 05:41:36;;;;;;;1.80;1.50;;;9.00;99.90;;;;;;4994745;28;20211;-93
2023/04/16 05:44:08;;;;;;;2.67;1.70;;;8.90;99.90;;;;;;4993631;28;20248;-92
2023/04/16 05:46:39;;;;;;;2.57;1.70;;;8.90;99.90;;;;;;4994610;28;20237;-92
2023/04/16 05:49:12;;;;;;;4.70;1.93;;;8.90;99.90;;;;;;4994064;28;20601;-92
2023/04/16 05:51:44;;;;;;;3.90;1.87;;;8.80;99.90;;;;;;4995125;28;20220;-92
2023/04/16 05:54:16;;;;;;;3.60;2.43;;;8.80;99.90;;;;;;5010006;28;20697;-90
2023/04/16 05:56:50;;;;;;;5.20;2.83;;;8.70;99.90;;;;;;5013975;28;20267;-91
2023/04/16 05:59:23;;;;;;;3.80;2.93;;;8.50;99.90;;;;;;5005854;28;20629;-91
2023/04/16 06:01:54;;;;;;;3.53;2.87;;;8.40;99.90;;;;;;4999138;28;20714;-92
2023/04/16 06:04:28;;;;;;;3.90;2.90;;;8.40;99.90;;;;;;5000432;28;20246;-91
2023/04/16 06:07:00;;;;;;;3.63;2.70;;;8.30;99.90;;;;;;5001924;28;20206;-88
2023/04/16 06:09:33;;;;;;;3.53;2.40;;;8.30;99.90;;;;;;5012907;28;20278;-88
2023/04/16 06:12:08;;;;;;;3.63;2.53;;;8.30;99.90;;;;;;5015745;28;20192;-90
2023/04/16 06:14:40;;;;;;;3.83;2.40;;;8.20;99.90;;;;;;5001469;28;20217;-90
2023/04/16 06:17:11;;;;;;;2.83;2.27;;;8.20;99.90;;;;;;5003165;28;20305;-91
2023/04/16 06:19:43;;;;;;;3.07;2.13;;;8.30;99.90;;;;;;5021487;28;20210;-91
2023/04/16 06:22:14;;;;;;;3.53;2.20;;;8.30;99.90;;;;;;5014268;28;20261;-90
2023/04/16 06:24:47;;;;;;;3.53;1.93;;;8.40;99.90;;;;;;5002258;28;20238;-90
2023/04/16 06:27:21;;;;;;;3.37;2.03;;;8.50;99.90;;;;;;5000203;28;20328;-91
2023/04/16 06:29:53;;;;;;;3.07;2.10;;;8.50;99.90;;;;;;4998704;28;20222;-91
2023/04/16 06:32:25;;;;;;;3.40;2.60;;;8.50;99.90;;;;;;4999347;28;20228;-92
2023/04/16 06:34:58;;;;;;;3.00;2.27;;;8.40;99.90;;;;;;5003546;28;20213;-91
2023/04/16 06:37:30;;;;;;;3.03;2.07;;;8.40;99.90;;;;;;5004017;28;20297;-92
2023/04/16 06:40:01;;;;;;;4.07;2.30;;;8.40;99.90;;;;;;5000981;28;20210;-92
2023/04/16 06:42:36;;;;;;;4.90;2.10;;;8.30;99.90;;;;;;5011034;28;20209;-92
2023/04/16 06:45:09;;;;;;;2.77;2.40;;;8.40;99.90;;;;;;5018367;28;20206;-91
2023/04/16 06:47:41;;;;;;;3.73;2.50;;;8.40;99.90;;;;;;5018643;28;20210;-92
2023/04/16 06:50:16;;;;;;;3.77;2.10;;;8.30;99.90;;;;;;5013305;28;20257;-92
2023/04/16 06:52:47;;;;;;;3.33;2.20;;;8.30;99.90;;;;;;4998820;28;20202;-92
2023/04/16 06:55:19;;;;;;;4.57;2.50;;;8.30;99.90;;;;;;4998022;28;20222;-92
2023/04/16 06:57:53;;;;;;;3.73;2.50;;;8.30;99.90;;;;;;4996898;28;20214;-89
2023/04/16 07:00:26;;;;;;;3.87;2.47;;;8.30;99.90;;;;;;4997976;28;20205;-90
2023/04/16 07:02:58;;;;;;;2.27;1.97;;;8.30;99.90;;;;;;4996554;28;20206;-91
2023/04/16 07:05:30;;;;;;;3.87;2.57;;;8.30;99.90;;;;;;4978394;28;20211;-90
2023/04/16 07:08:02;;;;;;;3.33;2.23;;;8.30;99.90;;;;;;4981617;28;20217;-90
2023/04/16 07:10:33;;;;;;;3.43;2.17;;;8.30;99.90;;;;;;5016954;28;20237;-90
2023/04/16 07:13:08;;;;;;;4.80;2.67;;;8.30;99.90;;;;;;5005901;28;20210;-91
2023/04/16 07:15:40;;;;;;;4.63;2.10;;;8.30;99.90;;;;;;4997468;28;20202;-91
2023/04/16 07:18:12;;;;;;;2.60;2.00;;;8.30;99.90;;;;;;4996047;28;20214;-90
2023/04/16 07:20:44;;;;;;;3.40;2.20;;;8.30;99.90;;;;;;5001794;28;20607;-91
2023/04/16 07:23:16;;;;;;;2.77;1.97;;;8.30;99.90;;;;;;4995693;28;20211;-89
2023/04/16 07:25:47;;;;;;;4.63;2.43;;;8.30;99.90;;;;;;4984675;28;20226;-91
2023/04/16 07:28:24;;;;;;;5.53;2.63;;;8.30;99.90;;;;;;4977599;28;20217;-92
2023/04/16 07:30:56;;;;;;;3.47;2.40;;;8.20;99.90;;;;;;4988461;28;20205;-90
2023/04/16 07:33:27;;;;;;;3.50;2.23;;;8.20;99.90;;;;;;4997755;28;20733;-91
2023/04/16 07:35:59;;;;;;;3.30;2.10;;;8.20;99.90;;;;;;4997137;28;20212;-92
2023/04/16 07:38:33;;;;;;;2.40;2.20;;;8.10;99.90;;;;;;4996061;28;20222;-92
2023/04/16 07:41:05;;;;;;;4.47;2.27;;;8.00;99.90;;;;;;4998527;28;20332;-92
2023/04/16 07:43:38;;;;;;;4.20;2.53;;;8.00;99.90;;;;;;4997160;28;20277;-92
2023/04/16 07:46:10;;;;;;;4.30;3.27;;;7.90;99.90;;;;;;4996708;28;20745;-92
2023/04/16 07:48:43;;;;;;;2.73;2.53;;;7.90;99.90;;;;;;4996205;28;20231;-92
2023/04/16 07:51:15;;;;;;;4.73;2.63;;;7.80;99.90;;;;;;4996824;28;20206;-92
2023/04/16 07:53:48;;;;;;;3.97;2.70;;;7.70;99.90;;;;;;4996889;28;20257;-91
2023/04/16 07:56:20;;;;;;;4.27;2.47;;;7.70;99.90;;;;;;4996032;28;20241;-92
2023/04/16 07:58:54;;;;;;;3.20;2.53;;;7.80;99.90;;;;;;4995414;28;20218;-92
2023/04/16 08:01:29;;;;;;;4.13;2.67;;;7.80;99.90;;;;;;4998156;28;20296;-92
2023/04/16 08:04:01;;;;;;;4.00;2.90;;;7.80;99.90;;;;;;5016404;28;20229;-91
2023/04/16 08:06:33;;;;;;;5.50;2.83;;;7.90;99.90;;;;;;5018275;28;20252;-90
2023/04/16 08:09:04;;;;;;;5.87;3.20;;;8.00;99.90;;;;;;5037817;28;20232;-91
2023/04/16 08:11:36;;;;;;;4.47;3.13;;;7.90;99.90;;;;;;5037717;28;20221;-91
2023/04/16 08:14:10;;;;;;;4.63;2.93;;;7.90;99.90;;;;;;5021466;28;20210;-91
2023/04/16 08:16:42;;;;;;;5.10;2.93;;;7.90;99.90;;;;;;5000748;28;20293;-89
2023/04/16 08:19:14;;;;;;;4.43;3.50;;;7.80;99.90;;;;;;5002837;28;20206;-93
2023/04/16 08:21:46;;;;;;;4.00;3.10;;;7.80;99.90;;;;;;5014907;28;20209;-90
2023/04/16 08:24:18;;;;;;;5.77;3.00;;;7.70;99.90;;;;;;4990535;28;20238;-90
2023/04/16 08:26:50;;;;;;;5.67;3.60;;;7.70;99.90;;;;;;4976534;28;20210;-90
2023/04/16 08:29:25;;;;;;;5.30;3.30;;;7.60;99.90;;;;;;4975962;28;20210;-90
2023/04/16 08:31:56;;;;;;;5.47;3.57;;;7.60;99.90;;;;;;4979260;28;20211;-91
2023/04/16 08:34:28;;;;;;;4.63;3.50;;;7.60;99.90;;;;;;4996915;28;20221;-92
2023/04/16 08:37:00;;;;;;;7.20;3.53;;;7.50;99.90;;;;;;4995728;28;20206;-92
2023/04/16 08:39:31;;;;;;;6.40;3.70;;;7.40;99.90;;;;;;4994877;28;20218;-91
2023/04/16 08:42:05;;;;;;;3.93;3.20;;;7.40;99.90;;;;;;5008691;28;20210;-92
2023/04/16 08:44:43;;;;;;;4.87;3.53;;;7.40;99.90;;;;;;5015813;28;20236;-91
2023/04/16 08:47:18;;;;;;;6.87;3.87;;;7.40;99.90;;;;;;5015040;28;20300;-91
2023/04/16 08:49:49;;;;;;;6.17;3.80;;;7.40;99.90;;;;;;5009924;28;20203;-91
2023/04/16 08:52:22;;;;;;;3.93;3.27;;;7.40;99.90;;;;;;4995508;28;20224;-92
2023/04/16 08:55:02;;;;;;;4.57;3.70;;;7.50;99.90;;;;;;4994385;28;20202;-91
2023/04/16 08:57:41;;;;;;;4.13;3.30;;;7.60;99.90;;;;;;4977584;28;20218;-91
2023/04/16 09:00:15;;;;;;;4.47;3.40;;;7.60;99.90;;;;;;5012184;28;20222;-91
2023/04/16 09:02:47;;;;;;;6.77;3.50;;;7.60;99.90;;;;;;5015107;28;20271;-92
2023/04/16 09:05:22;;;;;;;4.67;3.47;;;7.60;99.90;;;;;;5013733;28;20263;-92
2023/04/16 09:07:56;;;;;;;3.77;3.10;;;7.60;99.90;;;;;;5005801;28;20677;-90
2023/04/16 09:10:29;;;;;;;3.67;2.73;;;7.60;99.90;;;;;;4995024;28;20214;-90
2023/04/16 09:13:01;;;;;;;3.73;3.40;;;7.60;99.90;;;;;;4999157;28;20206;-91
2023/04/16 09:15:34;;;;;;;5.33;3.40;;;7.60;99.90;;;;;;4999012;28;20194;-90
2023/04/16 09:18:06;;;;;;;4.93;3.50;;;7.70;99.90;;;;;;4985381;28;20211;-90
2023/04/16 09:20:38;;;;;;;4.30;3.20;;;7.70;99.90;;;;;;4975633;28;20218;-90
2023/04/16 09:23:12;;;;;;;6.07;3.43;;;7.60;99.90;;;;;;4975480;28;20221;-91
2023/04/16 09:25:44;;;;;;;4.57;3.00;;;7.70;99.90;;;;;;4984392;28;20229;-90
2023/04/16 09:28:42;;;;;;;6.13;3.13;;;7.60;99.90;;;;;;4994043;28;20210;-90
2023/04/16 09:31:18;;;;;;;5.40;3.13;;;7.70;99.90;;;;;;4994827;28;20214;-90
2023/04/16 09:34:04;;;;;;;4.27;3.30;;;7.80;99.90;;;;;;4995762;28;20285;-89
2023/04/16 09:36:36;;;;;;;3.37;2.60;;;7.80;99.90;;;;;;5019166;28;20205;-91
2023/04/16 09:39:08;;;;;;;4.40;2.63;;;7.90;99.90;;;;;;5017684;28;20209;-92
2023/04/16 09:41:41;;;;;;;3.67;2.83;;;7.90;99.90;;;;;;4979338;28;20570;-92
2023/04/16 09:44:14;;;;;;;5.43;2.83;;;8.00;99.90;;;;;;4994377;28;20667;-91
2023/04/16 09:46:48;;;;;;;4.80;3.30;;;8.00;99.90;;;;;;4999089;28;20206;-91
2023/04/16 09:49:20;;;;;;;6.87;2.90;;;8.10;99.90;;;;;;4998087;28;20269;-92
2023/04/16 09:51:54;;;;;;;5.37;3.00;;;8.10;99.90;;;;;;4998910;28;20257;-92
2023/04/16 09:54:28;;;;;;;5.30;2.73;;;8.10;99.90;;;;;;5004604;28;20569;-91
2023/04/16 09:57:03;;;;;;;6.07;3.20;;;8.20;99.90;;;;;;5032043;28;20190;-91
2023/04/16 09:59:36;;;;;;;3.47;2.90;;;8.10;99.90;;;;;;5035485;28;20209;-92
2023/04/16 10:02:10;;;;;;;5.03;3.40;;;8.10;99.90;;;;;;5009797;28;20733;-91
2023/04/16 10:04:49;;;;;;;4.97;2.80;;;8.00;99.90;;;;;;4999077;28;20224;-89
2023/04/16 10:07:20;;;;;;;3.70;2.70;;;8.00;99.90;;;;;;4999621;28;20209;-91
2023/04/16 10:09:54;;;;;;;4.20;2.77;;;8.00;99.90;;;;;;4998635;28;20206;-91
2023/04/16 10:12:26;;;;;;;2.97;2.67;;;8.00;99.90;;;;;;4998411;28;20206;-91
2023/04/16 10:14:57;;;;;;;5.10;2.70;;;8.10;99.90;;;;;;4998035;28;20210;-91
2023/04/16 10:17:33;;;;;;;4.87;2.90;;;8.10;99.90;;;;;;4997230;28;20288;-90
2023/04/16 10:20:06;;;;;;;3.27;2.60;;;8.00;99.90;;;;;;5005364;28;20218;-90
2023/04/16 10:22:39;;;;;;;6.13;2.73;;;8.00;99.90;;;;;;4979188;28;20211;-90
2023/04/16 10:25:12;;;;;;;5.10;3.10;;;8.10;99.90;;;;;;4978382;28;20258;-90
2023/04/16 10:27:44;;;;;;;3.27;2.73;;;8.10;99.90;;;;;;4987358;28;20228;-90
2023/04/16 10:30:18;;;;;;;3.13;2.57;;;8.10;99.90;;;;;;4998018;28;20326;-91
2023/04/16 10:32:53;;;;;;;3.63;3.07;;;7.90;99.90;;;;;;4998668;28;20241;-91
2023/04/16 10:35:27;;;;;;;3.03;2.60;;;7.80;99.90;;;;;;4999905;28;20210;-91
2023/04/16 10:38:23;;;;;;;5.50;2.70;;;7.90;99.90;;;;;;4982795;28;20207;-89
2023/04/16 10:41:06;;;;;;;3.87;2.57;;;8.00;99.90;;;;;;4987104;28;20207;-90
2023/04/16 10:43:42;;;;;;;4.57;2.90;;;8.00;99.90;;;;;;4986953;28;20219;-91
2023/04/16 10:46:22;;;;;;;4.20;3.10;;;8.00;99.90;;;;;;5012656;28;20244;-91
2023/04/16 10:48:56;;;;;;;5.53;2.80;;;8.00;99.90;;;;;;5018458;28;20206;-91
2023/04/16 10:51:30;;;;;;;3.90;2.90;;;8.00;99.90;;;;;;5038662;28;20185;-92
2023/04/16 10:54:06;;;;;;;4.73;2.73;;;8.00;99.90;;;;;;5028324;28;20235;-92
2023/04/16 10:56:38;;;;;;;4.77;2.90;;;8.00;99.90;;;;;;5018853;28;20261;-92
2023/04/16 10:59:12;;;;;;;4.63;2.80;;;8.00;99.90;;;;;;5016942;28;20228;-91
2023/04/16 11:01:45;;;;;;;4.50;2.53;;;8.00;99.90;;;;;;5017342;28;20562;-91
2023/04/16 11:04:39;;;;;;;3.63;2.70;;;8.00;99.90;;;;;;4998762;28;20207;-91
2023/04/16 11:07:18;;;;;;;2.93;2.63;;;8.00;99.90;;;;;;4985399;28;20326;-90
2023/04/16 11:09:58;;;;;;;2.77;2.57;;;8.00;99.90;;;;;;4984895;28;20218;-91
2023/04/16 11:12:36;;;;;;;4.30;2.60;;;8.10;99.90;;;;;;4995984;28;20236;-89
2023/04/16 11:15:10;;;;;;;6.53;2.80;;;8.20;99.90;;;;;;5012683;28;20225;-90
2023/04/16 11:17:43;;;;;;;2.70;2.50;;;8.10;99.90;;;;;;5013109;28;20211;-89
2023/04/16 11:20:21;;;;;;;4.07;2.63;;;8.00;99.90;;;;;;5004569;28;20229;-89
2023/04/16 11:22:53;;;;;;;5.83;2.93;;;8.00;99.90;;;;;;4998171;28;20205;-89
2023/04/16 11:25:28;;;;;;;4.13;2.63;;;8.00;99.90;;;;;;5010604;28;20211;-90
2023/04/16 11:28:00;;;;;;;5.30;2.90;;;8.00;99.90;;;;;;5011848;28;20269;-90
2023/04/16 11:30:32;;;;;;;3.27;2.63;;;8.00;99.90;;;;;;5024496;28;20209;-90
2023/04/16 11:33:05;;;;;;;4.43;3.00;;;8.00;99.90;;;;;;5018703;28;20210;-91
2023/04/16 11:35:40;;;;;;;4.87;2.50;;;8.00;99.90;;;;;;5016771;28;20271;-90
2023/04/16 11:38:11;;;;;;;3.10;2.80;;;8.00;99.90;;;;;;5004302;28;20203;-90
2023/04/16 11:40:43;;;;;;;4.57;2.87;;;7.90;99.90;;;;;;4977796;28;20234;-90
2023/04/16 11:43:16;;;;;;;4.67;2.77;;;7.90;99.90;;;;;;4977661;28;20211;-90
2023/04/16 11:45:59;;;;;;;3.23;2.93;;;7.80;99.90;;;;;;4988841;28;20235;-90
2023/04/16 11:48:50;;;;;;;4.20;3.13;;;7.80;99.90;;;;;;5016211;28;20182;-91
2023/04/16 11:51:24;;;;;;;4.60;2.70;;;7.90;99.90;;;;;;5026294;28;20205;-91
2023/04/16 11:53:57;;;;;;;3.10;2.80;;;7.80;99.90;;;;;;5021440;28;20208;-91
2023/04/16 11:56:30;;;;;;;5.27;3.27;;;7.90;99.90;;;;;;5006484;28;20214;-91
2023/04/16 11:59:12;;;;;;;4.23;2.93;;;8.00;99.90;;;;;;4994683;28;20222;-92
2023/04/16 12:01:47;;;;;;;6.70;2.90;;;7.90;99.90;;;;;;5002388;28;20290;-92
2023/04/16 12:04:21;;;;;;;2.87;2.63;;;7.90;99.90;;;;;;5001002;28;20638;-92
2023/04/16 12:07:13;;;;;;;3.73;2.90;;;7.90;99.90;;;;;;4999199;28;20245;-92
2023/04/16 12:09:46;;;;;;;3.30;3.00;;;8.00;99.90;;;;;;4999944;28;20245;-92
2023/04/16 12:12:33;;;;;;;4.00;2.73;;;7.90;99.90;;;;;;5000329;28;20213;-91
2023/04/16 12:15:06;;;;;;;3.20;2.90;;;8.00;99.90;;;;;;4981605;28;20214;-92
2023/04/16 12:17:39;;;;;;;6.00;3.30;;;7.90;99.90;;;;;;4977650;28;20225;-90
2023/04/16 12:20:12;;;;;;;4.10;2.87;;;8.00;99.90;;;;;;4978017;28;20285;-91
2023/04/16 12:22:48;;;;;;;6.00;3.50;;;7.90;99.90;;;;;;4984999;28;20214;-90
2023/04/16 12:25:20;;;;;;;5.10;2.83;;;7.90;99.90;;;;;;4995632;28;20256;-90
2023/04/16 12:27:52;;;;;;;3.13;2.70;;;7.90;99.90;;;;;;4994579;28;20238;-90
2023/04/16 12:30:25;;;;;;;3.73;2.70;;;7.80;99.90;;;;;;5007155;28;20209;-90
2023/04/16 12:33:15;;;;;;;5.33;2.97;;;7.70;99.90;;;;;;4997276;28;20236;-89
2023/04/16 12:35:48;;;;;;;3.47;2.80;;;7.60;99.90;;;;;;5001616;28;20265;-90
2023/04/16 12:38:21;;;;;;;3.50;2.63;;;7.60;99.90;;;;;;4995224;28;20299;-90
2023/04/16 12:40:57;;;;;;;3.37;2.77;;;7.60;99.90;;;;;;4997430;28;20292;-90
2023/04/16 12:43:29;;;;;;;4.60;2.73;;;7.60;99.90;;;;;;4995274;28;20691;-89
2023/04/16 12:46:01;;;;;;;3.70;2.70;;;7.60;99.90;;;;;;4995400;28;20553;-89
2023/04/16 12:48:33;;;;;;;4.37;2.67;;;7.60;99.90;;;;;;4994236;28;20206;-89
2023/04/16 12:51:04;;;;;;;3.47;2.73;;;7.60;99.90;;;;;;4996138;28;20207;-90
2023/04/16 12:53:38;;;;;;;4.60;2.80;;;7.70;99.90;;;;;;4995521;28;20585;-91
2023/04/16 12:56:10;;;;;;;2.50;2.30;;;7.70;99.90;;;;;;5002042;28;20198;-91
2023/04/16 12:58:42;;;;;;;4.03;2.60;;;7.70;99.90;;;;;;5013956;28;20222;-90
2023/04/16 13:01:14;;;;;;;2.77;2.30;;;7.60;99.90;;;;;;5014012;28;20218;-91
2023/04/16 13:03:45;;;;;;;5.57;2.80;;;7.60;99.90;;;;;;5015269;28;20301;-92
2023/04/16 13:06:18;;;;;;;5.03;2.83;;;7.60;99.90;;;;;;5011945;28;20277;-90
2023/04/16 13:08:51;;;;;;;6.17;2.93;;;7.60;99.90;;;;;;4993836;28;20206;-92
2023/04/16 13:11:23;;;;;;;3.30;2.97;;;7.60;99.90;;;;;;4995125;28;20651;-90
2023/04/16 13:13:54;;;;;;;4.10;2.93;;;7.50;99.90;;;;;;4995268;28;20205;-91
2023/04/16 13:16:26;;;;;;;3.97;2.73;;;7.60;99.90;;;;;;4995000;28;20207;-91
2023/04/16 13:18:58;;;;;;;3.50;2.77;;;7.60;99.90;;;;;;4994656;28;20325;-91
2023/04/16 13:21:30;;;;;;;5.47;2.80;;;7.60;99.90;;;;;;5014230;28;20217;-91
2023/04/16 13:24:03;;;;;;;3.97;2.90;;;7.60;99.90;;;;;;5014451;28;20218;-90
2023/04/16 13:26:35;;;;;;;3.47;2.73;;;7.70;99.90;;;;;;5014640;28;20225;-91